sensor_id;sensor_type;location;lat;lon;timestamp;P1;durP1;ratioP1;P2;durP2;ratioP2
72127;SDS011;60000;51.030;7.024;2022-09-01T00:01:27;5.35;;;1.70;;
72127;SDS011;60000;51.030;7.024;2022-09-01T00:03:55;5.00;;;1.60;;
72127;SDS011;60000;51.030;7.024;2022-09-01T00:06:28;4.43;;;1.77;;
72127;SDS011;60000;51.030;7.024;2022-09-01T00:08:57;4.90;;;1.98;;
72127;SDS011;60000;51.030;7.024;2022-09-01T00:11:25;4.68;;;1.90;;
72127;SDS011;60000;51.030;7.024;2022-09-01T00:13:54;4.95;;;1.85;;
72127;SDS011;60000;51.030;7.024;2022-09-01T00:16:20;4.38;;;1.77;;
72127;SDS011;60000;51.030;7.024;2022-09-01T00:18:47;4.50;;;1.80;;
72127;SDS011;60000;51.030;7.024;2022-09-01T00:21:19;4.50;;;1.80;;
72127;SDS011;60000;51.030;7.024;2022-09-01T00:23:47;4.72;;;1.58;;
72127;SDS011;60000;51.030;7.024;2022-09-01T00:26:12;4.87;;;1.57;;
72127;SDS011;60000;51.030;7.024;2022-09-01T00:28:38;4.10;;;1.63;;
72127;SDS011;60000;51.030;7.024;2022-09-01T00:31:04;4.97;;;1.90;;
72127;SDS011;60000;51.030;7.024;2022-09-01T00:33:31;6.32;;;1.70;;
72127;SDS011;60000;51.030;7.024;2022-09-01T00:35:57;6.23;;;1.70;;
72127;SDS011;60000;51.030;7.024;2022-09-01T00:38:23;4.10;;;1.63;;
72127;SDS011;60000;51.030;7.024;2022-09-01T00:40:48;4.93;;;1.80;;
72127;SDS011;60000;51.030;7.024;2022-09-01T00:43:16;5.47;;;1.88;;
72127;SDS011;60000;51.030;7.024;2022-09-01T00:45:45;5.37;;;1.87;;
72127;SDS011;60000;51.030;7.024;2022-09-01T00:48:11;4.90;;;1.67;;
72127;SDS011;60000;51.030;7.024;2022-09-01T00:50:38;4.40;;;1.90;;
72127;SDS011;60000;51.030;7.024;2022-09-01T00:53:05;5.97;;;1.98;;
72127;SDS011;60000;51.030;7.024;2022-09-01T00:55:32;4.70;;;1.80;;
72127;SDS011;60000;51.030;7.024;2022-09-01T00:58:00;4.68;;;1.77;;
72127;SDS011;60000;51.030;7.024;2022-09-01T01:00:28;4.55;;;1.92;;
72127;SDS011;60000;51.030;7.024;2022-09-01T01:02:55;3.90;;;1.60;;
72127;SDS011;60000;51.030;7.024;2022-09-01T01:05:22;3.80;;;1.60;;
72127;SDS011;60000;51.030;7.024;2022-09-01T01:07:52;4.03;;;1.80;;
72127;SDS011;60000;51.030;7.024;2022-09-01T01:10:20;4.90;;;1.77;;
72127;SDS011;60000;51.030;7.024;2022-09-01T01:12:47;4.20;;;1.50;;
72127;SDS011;60000;51.030;7.024;2022-09-01T01:15:16;3.90;;;1.65;;
72127;SDS011;60000;51.030;7.024;2022-09-01T01:17:42;4.38;;;1.85;;
72127;SDS011;60000;51.030;7.024;2022-09-01T01:20:08;3.87;;;1.60;;
72127;SDS011;60000;51.030;7.024;2022-09-01T01:25:39;4.60;;;1.98;;
72127;SDS011;60000;51.030;7.024;2022-09-01T01:30:47;5.05;;;1.98;;
72127;SDS011;60000;51.030;7.024;2022-09-01T01:33:17;4.73;;;1.87;;
72127;SDS011;60000;51.030;7.024;2022-09-01T01:35:44;5.00;;;1.52;;
72127;SDS011;60000;51.030;7.024;2022-09-01T01:38:11;5.97;;;2.13;;
72127;SDS011;60000;51.030;7.024;2022-09-01T01:40:37;4.50;;;1.95;;
72127;SDS011;60000;51.030;7.024;2022-09-01T01:43:02;4.63;;;1.80;;
72127;SDS011;60000;51.030;7.024;2022-09-01T01:45:28;4.90;;;1.70;;
72127;SDS011;60000;51.030;7.024;2022-09-01T01:47:55;6.45;;;1.50;;
72127;SDS011;60000;51.030;7.024;2022-09-01T01:50:27;5.37;;;1.87;;
72127;SDS011;60000;51.030;7.024;2022-09-01T01:52:57;4.88;;;1.70;;
72127;SDS011;60000;51.030;7.024;2022-09-01T01:55:26;4.60;;;2.00;;
72127;SDS011;60000;51.030;7.024;2022-09-01T01:57:53;4.72;;;1.90;;
72127;SDS011;60000;51.030;7.024;2022-09-01T02:00:22;8.38;;;1.80;;
72127;SDS011;60000;51.030;7.024;2022-09-01T02:02:50;3.97;;;1.50;;
72127;SDS011;60000;51.030;7.024;2022-09-01T02:05:18;4.50;;;1.88;;
72127;SDS011;60000;51.030;7.024;2022-09-01T02:07:49;7.03;;;1.88;;
72127;SDS011;60000;51.030;7.024;2022-09-01T02:10:16;4.03;;;1.50;;
72127;SDS011;60000;51.030;7.024;2022-09-01T02:12:41;4.47;;;1.73;;
72127;SDS011;60000;51.030;7.024;2022-09-01T02:15:07;4.40;;;1.40;;
72127;SDS011;60000;51.030;7.024;2022-09-01T02:17:36;4.38;;;1.50;;
72127;SDS011;60000;51.030;7.024;2022-09-01T02:20:03;5.55;;;1.70;;
72127;SDS011;60000;51.030;7.024;2022-09-01T02:22:30;4.30;;;1.50;;
72127;SDS011;60000;51.030;7.024;2022-09-01T02:24:55;5.13;;;1.60;;
72127;SDS011;60000;51.030;7.024;2022-09-01T02:27:21;4.03;;;1.50;;
72127;SDS011;60000;51.030;7.024;2022-09-01T02:29:48;5.72;;;1.75;;
72127;SDS011;60000;51.030;7.024;2022-09-01T02:32:15;3.83;;;1.50;;
72127;SDS011;60000;51.030;7.024;2022-09-01T02:34:45;4.90;;;1.50;;
72127;SDS011;60000;51.030;7.024;2022-09-01T02:37:14;3.13;;;1.20;;
72127;SDS011;60000;51.030;7.024;2022-09-01T02:39:39;4.30;;;1.40;;
72127;SDS011;60000;51.030;7.024;2022-09-01T02:42:05;3.70;;;1.50;;
72127;SDS011;60000;51.030;7.024;2022-09-01T02:44:32;3.78;;;1.48;;
72127;SDS011;60000;51.030;7.024;2022-09-01T02:46:58;4.20;;;1.60;;
72127;SDS011;60000;51.030;7.024;2022-09-01T02:49:25;5.07;;;1.50;;
72127;SDS011;60000;51.030;7.024;2022-09-01T02:51:54;3.22;;;1.50;;
72127;SDS011;60000;51.030;7.024;2022-09-01T02:54:25;4.22;;;1.42;;
72127;SDS011;60000;51.030;7.024;2022-09-01T02:56:52;3.28;;;1.30;;
72127;SDS011;60000;51.030;7.024;2022-09-01T02:59:19;5.10;;;1.45;;
72127;SDS011;60000;51.030;7.024;2022-09-01T03:01:48;3.37;;;1.23;;
72127;SDS011;60000;51.030;7.024;2022-09-01T03:04:15;5.53;;;1.55;;
72127;SDS011;60000;51.030;7.024;2022-09-01T03:06:42;3.47;;;1.33;;
72127;SDS011;60000;51.030;7.024;2022-09-01T03:09:09;5.27;;;1.37;;
72127;SDS011;60000;51.030;7.024;2022-09-01T03:11:39;4.30;;;1.40;;
72127;SDS011;60000;51.030;7.024;2022-09-01T03:14:06;4.40;;;1.55;;
72127;SDS011;60000;51.030;7.024;2022-09-01T03:16:33;7.15;;;1.50;;
72127;SDS011;60000;51.030;7.024;2022-09-01T03:19:00;5.20;;;1.45;;
72127;SDS011;60000;51.030;7.024;2022-09-01T03:21:27;4.97;;;1.40;;
72127;SDS011;60000;51.030;7.024;2022-09-01T03:23:55;3.87;;;1.40;;
72127;SDS011;60000;51.030;7.024;2022-09-01T03:26:22;4.25;;;1.63;;
72127;SDS011;60000;51.030;7.024;2022-09-01T03:28:48;4.13;;;1.42;;
72127;SDS011;60000;51.030;7.024;2022-09-01T03:31:15;3.33;;;1.40;;
72127;SDS011;60000;51.030;7.024;2022-09-01T03:33:42;4.13;;;1.30;;
72127;SDS011;60000;51.030;7.024;2022-09-01T03:36:07;4.00;;;1.47;;
72127;SDS011;60000;51.030;7.024;2022-09-01T03:38:33;4.37;;;1.27;;
72127;SDS011;60000;51.030;7.024;2022-09-01T03:41:00;3.65;;;1.33;;
72127;SDS011;60000;51.030;7.024;2022-09-01T03:43:29;3.53;;;1.20;;
72127;SDS011;60000;51.030;7.024;2022-09-01T03:45:56;4.05;;;1.50;;
72127;SDS011;60000;51.030;7.024;2022-09-01T03:48:24;3.90;;;1.50;;
72127;SDS011;60000;51.030;7.024;2022-09-01T03:50:53;4.72;;;1.40;;
72127;SDS011;60000;51.030;7.024;2022-09-01T03:53:20;3.40;;;1.40;;
72127;SDS011;60000;51.030;7.024;2022-09-01T03:55:47;4.00;;;1.25;;
72127;SDS011;60000;51.030;7.024;2022-09-01T03:58:14;4.22;;;1.73;;
72127;SDS011;60000;51.030;7.024;2022-09-01T04:00:44;3.93;;;1.33;;
72127;SDS011;60000;51.030;7.024;2022-09-01T04:03:13;3.72;;;1.30;;
72127;SDS011;60000;51.030;7.024;2022-09-01T04:05:42;5.50;;;1.30;;
72127;SDS011;60000;51.030;7.024;2022-09-01T04:08:09;3.55;;;1.40;;
72127;SDS011;60000;51.030;7.024;2022-09-01T04:10:38;3.85;;;1.42;;
72127;SDS011;60000;51.030;7.024;2022-09-01T04:13:15;4.30;;;1.50;;
72127;SDS011;60000;51.030;7.024;2022-09-01T04:15:46;3.22;;;1.40;;
72127;SDS011;60000;51.030;7.024;2022-09-01T04:18:11;5.85;;;1.50;;
72127;SDS011;60000;51.030;7.024;2022-09-01T04:20:44;3.57;;;1.20;;
72127;SDS011;60000;51.030;7.024;2022-09-01T04:23:16;4.28;;;1.50;;
72127;SDS011;60000;51.030;7.024;2022-09-01T04:25:58;5.38;;;1.70;;
72127;SDS011;60000;51.030;7.024;2022-09-01T04:28:33;3.90;;;1.30;;
72127;SDS011;60000;51.030;7.024;2022-09-01T04:31:01;3.60;;;1.30;;
72127;SDS011;60000;51.030;7.024;2022-09-01T04:33:30;4.63;;;1.57;;
72127;SDS011;60000;51.030;7.024;2022-09-01T04:36:01;3.83;;;1.50;;
72127;SDS011;60000;51.030;7.024;2022-09-01T04:38:27;3.55;;;1.30;;
72127;SDS011;60000;51.030;7.024;2022-09-01T04:40:54;3.92;;;1.55;;
72127;SDS011;60000;51.030;7.024;2022-09-01T04:43:21;3.60;;;1.35;;
72127;SDS011;60000;51.030;7.024;2022-09-01T04:45:48;3.43;;;1.20;;
72127;SDS011;60000;51.030;7.024;2022-09-01T04:48:15;5.53;;;1.60;;
72127;SDS011;60000;51.030;7.024;2022-09-01T04:50:46;3.75;;;1.50;;
72127;SDS011;60000;51.030;7.024;2022-09-01T04:53:13;4.13;;;1.45;;
72127;SDS011;60000;51.030;7.024;2022-09-01T04:55:41;4.53;;;1.42;;
72127;SDS011;60000;51.030;7.024;2022-09-01T04:58:08;4.10;;;1.40;;
72127;SDS011;60000;51.030;7.024;2022-09-01T05:00:38;3.42;;;1.38;;
72127;SDS011;60000;51.030;7.024;2022-09-01T05:03:04;4.75;;;1.50;;
72127;SDS011;60000;51.030;7.024;2022-09-01T05:05:37;4.73;;;1.80;;
72127;SDS011;60000;51.030;7.024;2022-09-01T05:08:06;3.00;;;1.30;;
72127;SDS011;60000;51.030;7.024;2022-09-01T05:10:33;4.25;;;1.63;;
72127;SDS011;60000;51.030;7.024;2022-09-01T05:13:05;4.28;;;1.40;;
72127;SDS011;60000;51.030;7.024;2022-09-01T05:15:34;4.43;;;1.60;;
72127;SDS011;60000;51.030;7.024;2022-09-01T05:18:01;3.63;;;1.30;;
72127;SDS011;60000;51.030;7.024;2022-09-01T05:20:35;4.85;;;1.50;;
72127;SDS011;60000;51.030;7.024;2022-09-01T05:23:02;4.82;;;1.65;;
72127;SDS011;60000;51.030;7.024;2022-09-01T05:25:29;5.63;;;1.98;;
72127;SDS011;60000;51.030;7.024;2022-09-01T05:27:55;5.13;;;1.60;;
72127;SDS011;60000;51.030;7.024;2022-09-01T05:30:21;3.35;;;1.40;;
72127;SDS011;60000;51.030;7.024;2022-09-01T05:32:48;4.85;;;1.60;;
72127;SDS011;60000;51.030;7.024;2022-09-01T05:35:14;4.07;;;1.92;;
72127;SDS011;60000;51.030;7.024;2022-09-01T05:37:40;3.37;;;1.10;;
72127;SDS011;60000;51.030;7.024;2022-09-01T05:40:07;6.05;;;1.50;;
72127;SDS011;60000;51.030;7.024;2022-09-01T05:42:39;3.75;;;1.30;;
72127;SDS011;60000;51.030;7.024;2022-09-01T05:45:06;3.03;;;1.25;;
72127;SDS011;60000;51.030;7.024;2022-09-01T05:47:34;4.33;;;1.27;;
72127;SDS011;60000;51.030;7.024;2022-09-01T05:50:00;3.25;;;1.17;;
72127;SDS011;60000;51.030;7.024;2022-09-01T05:52:27;3.08;;;1.10;;
72127;SDS011;60000;51.030;7.024;2022-09-01T05:54:56;3.33;;;1.15;;
72127;SDS011;60000;51.030;7.024;2022-09-01T05:57:23;3.50;;;1.40;;
72127;SDS011;60000;51.030;7.024;2022-09-01T05:59:49;4.10;;;1.47;;
72127;SDS011;60000;51.030;7.024;2022-09-01T06:02:18;3.45;;;1.30;;
72127;SDS011;60000;51.030;7.024;2022-09-01T06:04:45;5.80;;;1.30;;
72127;SDS011;60000;51.030;7.024;2022-09-01T06:07:11;3.80;;;1.30;;
72127;SDS011;60000;51.030;7.024;2022-09-01T06:09:42;4.20;;;1.30;;
72127;SDS011;60000;51.030;7.024;2022-09-01T06:12:10;4.38;;;1.35;;
72127;SDS011;60000;51.030;7.024;2022-09-01T06:14:41;4.07;;;1.20;;
72127;SDS011;60000;51.030;7.024;2022-09-01T06:17:07;6.45;;;1.85;;
72127;SDS011;60000;51.030;7.024;2022-09-01T06:19:34;3.58;;;1.30;;
72127;SDS011;60000;51.030;7.024;2022-09-01T06:22:00;3.03;;;1.13;;
72127;SDS011;60000;51.030;7.024;2022-09-01T06:24:26;3.70;;;1.45;;
72127;SDS011;60000;51.030;7.024;2022-09-01T06:26:52;4.85;;;1.40;;
72127;SDS011;60000;51.030;7.024;2022-09-01T06:29:18;4.10;;;1.20;;
72127;SDS011;60000;51.030;7.024;2022-09-01T06:31:45;3.97;;;1.77;;
72127;SDS011;60000;51.030;7.024;2022-09-01T06:34:15;3.65;;;1.27;;
72127;SDS011;60000;51.030;7.024;2022-09-01T06:36:42;3.85;;;1.30;;
72127;SDS011;60000;51.030;7.024;2022-09-01T06:39:10;5.28;;;1.30;;
72127;SDS011;60000;51.030;7.024;2022-09-01T06:41:43;4.32;;;1.40;;
72127;SDS011;60000;51.030;7.024;2022-09-01T06:44:15;3.10;;;1.17;;
72127;SDS011;60000;51.030;7.024;2022-09-01T06:46:50;3.10;;;1.23;;
72127;SDS011;60000;51.030;7.024;2022-09-01T06:49:17;6.13;;;1.50;;
72127;SDS011;60000;51.030;7.024;2022-09-01T06:51:45;3.22;;;1.15;;
72127;SDS011;60000;51.030;7.024;2022-09-01T06:54:13;5.43;;;1.30;;
72127;SDS011;60000;51.030;7.024;2022-09-01T06:56:44;4.40;;;1.40;;
72127;SDS011;60000;51.030;7.024;2022-09-01T06:59:09;3.72;;;1.40;;
72127;SDS011;60000;51.030;7.024;2022-09-01T07:01:39;3.15;;;1.23;;
72127;SDS011;60000;51.030;7.024;2022-09-01T07:04:05;3.80;;;1.27;;
72127;SDS011;60000;51.030;7.024;2022-09-01T07:06:30;3.07;;;1.07;;
72127;SDS011;60000;51.030;7.024;2022-09-01T07:08:56;3.80;;;1.20;;
72127;SDS011;60000;51.030;7.024;2022-09-01T07:11:24;2.10;;;0.90;;
72127;SDS011;60000;51.030;7.024;2022-09-01T07:13:52;4.30;;;1.25;;
72127;SDS011;60000;51.030;7.024;2022-09-01T07:16:20;4.85;;;1.00;;
72127;SDS011;60000;51.030;7.024;2022-09-01T07:18:48;2.75;;;1.00;;
72127;SDS011;60000;51.030;7.024;2022-09-01T07:21:15;3.90;;;1.20;;
72127;SDS011;60000;51.030;7.024;2022-09-01T07:23:41;4.17;;;1.30;;
72127;SDS011;60000;51.030;7.024;2022-09-01T07:26:07;3.30;;;1.13;;
72127;SDS011;60000;51.030;7.024;2022-09-01T07:28:34;3.15;;;1.00;;
72127;SDS011;60000;51.030;7.024;2022-09-01T07:31:00;2.45;;;1.00;;
72127;SDS011;60000;51.030;7.024;2022-09-01T07:33:27;4.85;;;1.02;;
72127;SDS011;60000;51.030;7.024;2022-09-01T07:35:54;2.67;;;1.13;;
72127;SDS011;60000;51.030;7.024;2022-09-01T07:38:21;2.25;;;1.00;;
72127;SDS011;60000;51.030;7.024;2022-09-01T07:40:50;2.58;;;1.00;;
72127;SDS011;60000;51.030;7.024;2022-09-01T07:43:23;3.15;;;1.15;;
72127;SDS011;60000;51.030;7.024;2022-09-01T07:45:51;2.47;;;0.90;;
72127;SDS011;60000;51.030;7.024;2022-09-01T07:48:20;4.77;;;1.17;;
72127;SDS011;60000;51.030;7.024;2022-09-01T07:50:48;2.08;;;0.80;;
72127;SDS011;60000;51.030;7.024;2022-09-01T07:53:18;4.30;;;1.23;;
72127;SDS011;60000;51.030;7.024;2022-09-01T07:55:46;3.95;;;0.80;;
72127;SDS011;60000;51.030;7.024;2022-09-01T07:58:14;3.78;;;0.95;;
72127;SDS011;60000;51.030;7.024;2022-09-01T08:00:40;2.80;;;1.00;;
72127;SDS011;60000;51.030;7.024;2022-09-01T08:03:10;3.17;;;0.85;;
72127;SDS011;60000;51.030;7.024;2022-09-01T08:05:35;3.93;;;1.10;;
72127;SDS011;60000;51.030;7.024;2022-09-01T08:08:01;1.80;;;0.60;;
72127;SDS011;60000;51.030;7.024;2022-09-01T08:10:27;3.73;;;1.07;;
72127;SDS011;60000;51.030;7.024;2022-09-01T08:12:52;3.78;;;0.80;;
72127;SDS011;60000;51.030;7.024;2022-09-01T08:15:18;3.07;;;0.90;;
72127;SDS011;60000;51.030;7.024;2022-09-01T08:17:43;2.47;;;0.90;;
72127;SDS011;60000;51.030;7.024;2022-09-01T08:20:09;2.95;;;0.85;;
72127;SDS011;60000;51.030;7.024;2022-09-01T08:22:35;3.47;;;0.87;;
72127;SDS011;60000;51.030;7.024;2022-09-01T08:25:03;5.82;;;0.80;;
72127;SDS011;60000;51.030;7.024;2022-09-01T08:27:30;2.53;;;0.85;;
72127;SDS011;60000;51.030;7.024;2022-09-01T08:29:57;2.50;;;0.80;;
72127;SDS011;60000;51.030;7.024;2022-09-01T08:32:24;6.55;;;1.17;;
72127;SDS011;60000;51.030;7.024;2022-09-01T08:34:50;3.30;;;0.90;;
72127;SDS011;60000;51.030;7.024;2022-09-01T08:37:15;5.82;;;0.90;;
72127;SDS011;60000;51.030;7.024;2022-09-01T08:39:41;3.57;;;0.80;;
72127;SDS011;60000;51.030;7.024;2022-09-01T08:44:50;7.00;;;0.90;;
72127;SDS011;60000;51.030;7.024;2022-09-01T08:47:24;3.45;;;1.00;;
72127;SDS011;60000;51.030;7.024;2022-09-01T08:49:49;3.67;;;1.07;;
72127;SDS011;60000;51.030;7.024;2022-09-01T08:54:54;2.15;;;0.80;;
72127;SDS011;60000;51.030;7.024;2022-09-01T08:57:33;2.70;;;0.75;;
72127;SDS011;60000;51.030;7.024;2022-09-01T09:00:00;4.10;;;1.10;;
72127;SDS011;60000;51.030;7.024;2022-09-01T09:11:21;4.38;;;0.80;;
72127;SDS011;60000;51.030;7.024;2022-09-01T09:16:40;3.72;;;0.85;;
72127;SDS011;60000;51.030;7.024;2022-09-01T09:19:09;2.10;;;0.63;;
72127;SDS011;60000;51.030;7.024;2022-09-01T09:21:46;2.83;;;0.82;;
72127;SDS011;60000;51.030;7.024;2022-09-01T09:26:57;5.60;;;0.90;;
72127;SDS011;60000;51.030;7.024;2022-09-01T09:29:24;6.45;;;0.93;;
72127;SDS011;60000;51.030;7.024;2022-09-01T09:32:02;4.53;;;0.80;;
72127;SDS011;60000;51.030;7.024;2022-09-01T09:34:32;2.40;;;0.88;;
72127;SDS011;60000;51.030;7.024;2022-09-01T09:40:00;2.50;;;0.90;;
72127;SDS011;60000;51.030;7.024;2022-09-01T09:42:36;2.90;;;0.80;;
72127;SDS011;60000;51.030;7.024;2022-09-01T09:45:04;4.60;;;1.03;;
72127;SDS011;60000;51.030;7.024;2022-09-01T09:47:43;2.53;;;0.80;;
72127;SDS011;60000;51.030;7.024;2022-09-01T09:52:38;2.00;;;0.70;;
72127;SDS011;60000;51.030;7.024;2022-09-01T09:55:05;1.93;;;0.77;;
72127;SDS011;60000;51.030;7.024;2022-09-01T09:57:45;1.88;;;0.70;;
72127;SDS011;60000;51.030;7.024;2022-09-01T10:02:41;2.17;;;0.77;;
72127;SDS011;60000;51.030;7.024;2022-09-01T10:07:52;2.85;;;1.05;;
72127;SDS011;60000;51.030;7.024;2022-09-01T10:12:53;3.15;;;0.88;;
72127;SDS011;60000;51.030;7.024;2022-09-01T10:15:24;2.93;;;0.80;;
72127;SDS011;60000;51.030;7.024;2022-09-01T10:17:52;2.40;;;0.85;;
72127;SDS011;60000;51.030;7.024;2022-09-01T10:20:23;2.35;;;0.88;;
72127;SDS011;60000;51.030;7.024;2022-09-01T10:22:50;2.15;;;0.90;;
72127;SDS011;60000;51.030;7.024;2022-09-01T10:25:18;3.75;;;0.88;;
72127;SDS011;60000;51.030;7.024;2022-09-01T10:28:27;5.23;;;1.03;;
72127;SDS011;60000;51.030;7.024;2022-09-01T10:30:41;4.00;;;1.10;;
72127;SDS011;60000;51.030;7.024;2022-09-01T10:33:09;4.72;;;1.05;;
72127;SDS011;60000;51.030;7.024;2022-09-01T10:35:38;2.72;;;0.88;;
72127;SDS011;60000;51.030;7.024;2022-09-01T10:38:09;3.50;;;1.00;;
72127;SDS011;60000;51.030;7.024;2022-09-01T10:40:43;3.07;;;1.00;;
72127;SDS011;60000;51.030;7.024;2022-09-01T10:43:23;2.92;;;0.93;;
72127;SDS011;60000;51.030;7.024;2022-09-01T10:45:51;2.50;;;1.00;;
72127;SDS011;60000;51.030;7.024;2022-09-01T10:50:48;3.90;;;0.85;;
72127;SDS011;60000;51.030;7.024;2022-09-01T10:56:07;2.95;;;0.90;;
72127;SDS011;60000;51.030;7.024;2022-09-01T11:07:00;4.32;;;1.40;;
72127;SDS011;60000;51.030;7.024;2022-09-01T11:20:22;2.73;;;1.20;;
72127;SDS011;60000;51.030;7.024;2022-09-01T11:27:58;2.78;;;1.15;;
72127;SDS011;60000;51.030;7.024;2022-09-01T11:33:25;2.60;;;1.03;;
72127;SDS011;60000;51.030;7.024;2022-09-01T11:36:03;3.17;;;1.10;;
72127;SDS011;60000;51.030;7.024;2022-09-01T11:38:41;3.03;;;1.17;;
72127;SDS011;60000;51.030;7.024;2022-09-01T11:41:19;3.40;;;1.20;;
72127;SDS011;60000;51.030;7.024;2022-09-01T11:43:47;2.92;;;1.38;;
72127;SDS011;60000;51.030;7.024;2022-09-01T11:46:21;3.90;;;1.17;;
72127;SDS011;60000;51.030;7.024;2022-09-01T11:48:51;4.68;;;1.23;;
72127;SDS011;60000;51.030;7.024;2022-09-01T11:51:18;2.97;;;1.23;;
72127;SDS011;60000;51.030;7.024;2022-09-01T11:53:45;5.68;;;1.50;;
72127;SDS011;60000;51.030;7.024;2022-09-01T11:56:12;2.77;;;1.20;;
72127;SDS011;60000;51.030;7.024;2022-09-01T11:58:44;3.65;;;1.17;;
72127;SDS011;60000;51.030;7.024;2022-09-01T12:07:01;4.88;;;1.40;;
72127;SDS011;60000;51.030;7.024;2022-09-01T12:09:32;3.27;;;1.30;;
72127;SDS011;60000;51.030;7.024;2022-09-01T12:12:06;4.38;;;1.40;;
72127;SDS011;60000;51.030;7.024;2022-09-01T12:14:59;4.95;;;1.42;;
72127;SDS011;60000;51.030;7.024;2022-09-01T12:17:31;2.88;;;1.30;;
72127;SDS011;60000;51.030;7.024;2022-09-01T12:20:17;3.63;;;1.30;;
72127;SDS011;60000;51.030;7.024;2022-09-01T12:22:59;3.17;;;1.43;;
72127;SDS011;60000;51.030;7.024;2022-09-01T12:25:30;3.70;;;1.50;;
72127;SDS011;60000;51.030;7.024;2022-09-01T12:28:00;4.82;;;1.52;;
72127;SDS011;60000;51.030;7.024;2022-09-01T12:30:27;3.50;;;1.30;;
72127;SDS011;60000;51.030;7.024;2022-09-01T12:32:54;3.92;;;1.50;;
72127;SDS011;60000;51.030;7.024;2022-09-01T12:35:24;4.70;;;1.30;;
72127;SDS011;60000;51.030;7.024;2022-09-01T12:37:51;4.70;;;1.60;;
72127;SDS011;60000;51.030;7.024;2022-09-01T12:40:36;4.00;;;1.63;;
72127;SDS011;60000;51.030;7.024;2022-09-01T12:43:02;4.13;;;1.43;;
72127;SDS011;60000;51.030;7.024;2022-09-01T12:48:22;3.15;;;1.17;;
72127;SDS011;60000;51.030;7.024;2022-09-01T12:50:54;4.50;;;1.38;;
72127;SDS011;60000;51.030;7.024;2022-09-01T12:53:22;4.30;;;1.60;;
72127;SDS011;60000;51.030;7.024;2022-09-01T12:55:54;5.47;;;2.08;;
72127;SDS011;60000;51.030;7.024;2022-09-01T13:01:03;5.30;;;1.67;;
72127;SDS011;60000;51.030;7.024;2022-09-01T13:03:32;4.07;;;1.80;;
72127;SDS011;60000;51.030;7.024;2022-09-01T13:05:59;3.97;;;1.60;;
72127;SDS011;60000;51.030;7.024;2022-09-01T13:08:35;3.47;;;1.63;;
72127;SDS011;60000;51.030;7.024;2022-09-01T13:11:01;4.50;;;1.60;;
72127;SDS011;60000;51.030;7.024;2022-09-01T13:13:29;4.35;;;1.80;;
72127;SDS011;60000;51.030;7.024;2022-09-01T13:15:56;6.50;;;1.70;;
72127;SDS011;60000;51.030;7.024;2022-09-01T13:18:28;4.43;;;1.70;;
72127;SDS011;60000;51.030;7.024;2022-09-01T13:20:55;5.63;;;1.98;;
72127;SDS011;60000;51.030;7.024;2022-09-01T13:23:21;4.90;;;2.00;;
72127;SDS011;60000;51.030;7.024;2022-09-01T13:25:47;4.82;;;1.95;;
72127;SDS011;60000;51.030;7.024;2022-09-01T13:28:13;5.33;;;1.70;;
72127;SDS011;60000;51.030;7.024;2022-09-01T13:30:40;4.97;;;2.00;;
72127;SDS011;60000;51.030;7.024;2022-09-01T13:33:08;3.70;;;1.55;;
72127;SDS011;60000;51.030;7.024;2022-09-01T13:35:36;5.60;;;1.80;;
72127;SDS011;60000;51.030;7.024;2022-09-01T13:38:02;3.95;;;1.77;;
72127;SDS011;60000;51.030;7.024;2022-09-01T13:40:27;4.20;;;2.07;;
72127;SDS011;60000;51.030;7.024;2022-09-01T13:42:53;4.53;;;1.93;;
72127;SDS011;60000;51.030;7.024;2022-09-01T13:45:20;3.57;;;1.57;;
72127;SDS011;60000;51.030;7.024;2022-09-01T13:47:48;4.00;;;1.67;;
72127;SDS011;60000;51.030;7.024;2022-09-01T13:50:15;3.60;;;1.60;;
72127;SDS011;60000;51.030;7.024;2022-09-01T13:52:44;5.00;;;1.80;;
72127;SDS011;60000;51.030;7.024;2022-09-01T13:55:13;4.35;;;1.63;;
72127;SDS011;60000;51.030;7.024;2022-09-01T13:57:41;4.05;;;1.60;;
72127;SDS011;60000;51.030;7.024;2022-09-01T14:00:08;3.63;;;1.60;;
72127;SDS011;60000;51.030;7.024;2022-09-01T14:02:37;5.03;;;1.73;;
72127;SDS011;60000;51.030;7.024;2022-09-01T14:05:04;4.38;;;1.90;;
72127;SDS011;60000;51.030;7.024;2022-09-01T14:07:30;3.57;;;1.50;;
72127;SDS011;60000;51.030;7.024;2022-09-01T14:09:56;5.30;;;1.50;;
72127;SDS011;60000;51.030;7.024;2022-09-01T14:12:21;4.30;;;1.77;;
72127;SDS011;60000;51.030;7.024;2022-09-01T14:14:47;5.63;;;2.00;;
72127;SDS011;60000;51.030;7.024;2022-09-01T14:17:12;3.77;;;1.60;;
72127;SDS011;60000;51.030;7.024;2022-09-01T14:19:37;3.90;;;1.63;;
72127;SDS011;60000;51.030;7.024;2022-09-01T14:22:03;5.07;;;1.67;;
72127;SDS011;60000;51.030;7.024;2022-09-01T14:24:30;4.33;;;1.70;;
72127;SDS011;60000;51.030;7.024;2022-09-01T14:26:59;3.92;;;1.58;;
72127;SDS011;60000;51.030;7.024;2022-09-01T14:29:25;4.20;;;1.80;;
72127;SDS011;60000;51.030;7.024;2022-09-01T14:31:51;4.43;;;1.48;;
72127;SDS011;60000;51.030;7.024;2022-09-01T14:34:16;4.27;;;1.70;;
72127;SDS011;60000;51.030;7.024;2022-09-01T14:36:42;4.15;;;1.70;;
72127;SDS011;60000;51.030;7.024;2022-09-01T14:39:09;4.38;;;1.80;;
72127;SDS011;60000;51.030;7.024;2022-09-01T14:41:34;3.97;;;1.97;;
72127;SDS011;60000;51.030;7.024;2022-09-01T14:43:59;5.73;;;1.80;;
72127;SDS011;60000;51.030;7.024;2022-09-01T14:46:28;4.72;;;1.85;;
72127;SDS011;60000;51.030;7.024;2022-09-01T14:49:03;3.90;;;1.60;;
72127;SDS011;60000;51.030;7.024;2022-09-01T14:51:29;4.32;;;1.65;;
72127;SDS011;60000;51.030;7.024;2022-09-01T14:53:55;5.07;;;1.73;;
72127;SDS011;60000;51.030;7.024;2022-09-01T14:56:22;5.97;;;1.90;;
72127;SDS011;60000;51.030;7.024;2022-09-01T14:58:48;3.40;;;1.42;;
72127;SDS011;60000;51.030;7.024;2022-09-01T15:01:15;3.92;;;1.70;;
72127;SDS011;60000;51.030;7.024;2022-09-01T15:03:42;4.10;;;1.90;;
72127;SDS011;60000;51.030;7.024;2022-09-01T15:06:10;3.90;;;1.50;;
72127;SDS011;60000;51.030;7.024;2022-09-01T15:08:37;4.13;;;1.63;;
72127;SDS011;60000;51.030;7.024;2022-09-01T15:11:06;3.97;;;1.60;;
72127;SDS011;60000;51.030;7.024;2022-09-01T15:13:36;4.70;;;1.83;;
72127;SDS011;60000;51.030;7.024;2022-09-01T15:16:03;3.60;;;1.50;;
72127;SDS011;60000;51.030;7.024;2022-09-01T15:18:29;3.92;;;1.63;;
72127;SDS011;60000;51.030;7.024;2022-09-01T15:20:54;4.03;;;1.65;;
72127;SDS011;60000;51.030;7.024;2022-09-01T15:23:21;4.50;;;1.80;;
72127;SDS011;60000;51.030;7.024;2022-09-01T15:25:53;4.90;;;1.85;;
72127;SDS011;60000;51.030;7.024;2022-09-01T15:28:19;5.27;;;2.03;;
72127;SDS011;60000;51.030;7.024;2022-09-01T15:30:45;3.97;;;2.00;;
72127;SDS011;60000;51.030;7.024;2022-09-01T15:33:11;4.20;;;2.00;;
72127;SDS011;60000;51.030;7.024;2022-09-01T15:35:37;4.17;;;1.87;;
72127;SDS011;60000;51.030;7.024;2022-09-01T15:38:03;4.70;;;1.83;;
72127;SDS011;60000;51.030;7.024;2022-09-01T15:40:29;3.50;;;1.58;;
72127;SDS011;60000;51.030;7.024;2022-09-01T15:42:55;3.58;;;1.50;;
72127;SDS011;60000;51.030;7.024;2022-09-01T15:45:22;4.27;;;1.70;;
72127;SDS011;60000;51.030;7.024;2022-09-01T15:47:49;4.72;;;1.85;;
72127;SDS011;60000;51.030;7.024;2022-09-01T15:50:15;4.83;;;1.70;;
72127;SDS011;60000;51.030;7.024;2022-09-01T15:52:54;4.43;;;1.92;;
72127;SDS011;60000;51.030;7.024;2022-09-01T15:55:41;3.75;;;1.80;;
72127;SDS011;60000;51.030;7.024;2022-09-01T15:58:09;4.13;;;1.80;;
72127;SDS011;60000;51.030;7.024;2022-09-01T16:00:36;3.53;;;1.45;;
72127;SDS011;60000;51.030;7.024;2022-09-01T16:03:02;3.77;;;1.43;;
72127;SDS011;60000;51.030;7.024;2022-09-01T16:05:31;3.47;;;1.33;;
72127;SDS011;60000;51.030;7.024;2022-09-01T16:07:59;3.30;;;1.40;;
72127;SDS011;60000;51.030;7.024;2022-09-01T16:10:25;4.80;;;1.58;;
72127;SDS011;60000;51.030;7.024;2022-09-01T16:12:53;4.00;;;1.50;;
72127;SDS011;60000;51.030;7.024;2022-09-01T16:15:20;3.23;;;1.40;;
72127;SDS011;60000;51.030;7.024;2022-09-01T16:20:18;3.80;;;1.50;;